aviador You're here:

FAKM Decoded Metar

KIMBERLEY in SOUTH AFRICA
Report Time2017-08-23 03:00:00
UTC Time2017-08-23 04:05:39
Flight Rules vfr VFR
WindCalm
Visibility9999 m
Phenomena:N/A
Clouds:N/A
Expected CloudBase > 2,800 ft AGL from Temp-Dew spread
CeilingNone
Temp-1°C (ISA -8)
Dew Point-8°C (59% RH)
AAT-3.9°C
QNH1022 hPa
Density Alt2,664 ft
Elevation3,911 ft
Report Wrong Elevation
Raw Report
METAR FAKM 230300Z 00000KT CAVOK M01/M08 Q1022=

Extra information for FAKM:More info

Metar Taf Metar & Taf Last 4 Metars F.Rules Stats Wind Profile Meteogram Temp Stats Airport Information Weather charts Add Link Nearby VenuesMetar ALERT Operation Metar Decoded Social comments